sensor_id;sensor_type;location;lat;lon;timestamp;P1;durP1;ratioP1;P2;durP2;ratioP2
48897;SDS011;34713;50.038;20.000;2023-07-13T00:10:55;7.30;;;4.80;;
48897;SDS011;34713;50.038;20.000;2023-07-13T00:20:04;5.00;;;4.50;;
48897;SDS011;34713;50.038;20.000;2023-07-13T00:23:23;5.50;;;4.00;;
48897;SDS011;34713;50.038;20.000;2023-07-13T00:29:07;5.40;;;3.90;;
48897;SDS011;34713;50.038;20.000;2023-07-13T00:31:47;6.10;;;4.10;;
48897;SDS011;34713;50.038;20.000;2023-07-13T00:34:17;8.00;;;4.80;;
48897;SDS011;34713;50.038;20.000;2023-07-13T00:36:47;7.90;;;4.90;;
48897;SDS011;34713;50.038;20.000;2023-07-13T00:39:14;7.50;;;4.50;;
48897;SDS011;34713;50.038;20.000;2023-07-13T00:41:50;10.30;;;5.20;;
48897;SDS011;34713;50.038;20.000;2023-07-13T00:44:25;8.20;;;4.90;;
48897;SDS011;34713;50.038;20.000;2023-07-13T00:49:26;8.60;;;4.80;;
48897;SDS011;34713;50.038;20.000;2023-07-13T00:52:14;7.60;;;5.50;;
48897;SDS011;34713;50.038;20.000;2023-07-13T00:54:41;9.50;;;4.80;;
48897;SDS011;34713;50.038;20.000;2023-07-13T00:57:11;6.30;;;4.40;;
48897;SDS011;34713;50.038;20.000;2023-07-13T00:59:46;5.70;;;3.80;;
48897;SDS011;34713;50.038;20.000;2023-07-13T01:02:15;5.60;;;4.30;;
48897;SDS011;34713;50.038;20.000;2023-07-13T01:04:45;8.10;;;4.40;;
48897;SDS011;34713;50.038;20.000;2023-07-13T01:07:12;6.70;;;4.30;;
48897;SDS011;34713;50.038;20.000;2023-07-13T01:09:39;6.80;;;4.20;;
48897;SDS011;34713;50.038;20.000;2023-07-13T01:12:06;7.10;;;4.60;;
48897;SDS011;34713;50.038;20.000;2023-07-13T01:14:36;7.50;;;5.00;;
48897;SDS011;34713;50.038;20.000;2023-07-13T01:17:05;7.70;;;5.00;;
48897;SDS011;34713;50.038;20.000;2023-07-13T01:19:35;9.00;;;4.70;;
48897;SDS011;34713;50.038;20.000;2023-07-13T01:22:13;8.30;;;5.10;;
48897;SDS011;34713;50.038;20.000;2023-07-13T01:24:46;8.40;;;5.00;;
48897;SDS011;34713;50.038;20.000;2023-07-13T01:27:19;7.70;;;4.70;;
48897;SDS011;34713;50.038;20.000;2023-07-13T01:29:51;7.30;;;4.60;;
48897;SDS011;34713;50.038;20.000;2023-07-13T01:32:20;7.10;;;4.10;;
48897;SDS011;34713;50.038;20.000;2023-07-13T01:35:08;7.20;;;4.40;;
48897;SDS011;34713;50.038;20.000;2023-07-13T01:37:34;5.60;;;4.20;;
48897;SDS011;34713;50.038;20.000;2023-07-13T01:40:04;7.10;;;4.30;;
48897;SDS011;34713;50.038;20.000;2023-07-13T01:42:36;7.60;;;4.60;;
48897;SDS011;34713;50.038;20.000;2023-07-13T01:45:09;7.60;;;4.40;;
48897;SDS011;34713;50.038;20.000;2023-07-13T01:47:56;8.20;;;4.20;;
48897;SDS011;34713;50.038;20.000;2023-07-13T01:50:43;7.10;;;4.60;;
48897;SDS011;34713;50.038;20.000;2023-07-13T01:53:15;7.60;;;4.30;;
48897;SDS011;34713;50.038;20.000;2023-07-13T01:56:11;5.50;;;4.10;;
48897;SDS011;34713;50.038;20.000;2023-07-13T02:02:29;6.00;;;4.40;;
48897;SDS011;34713;50.038;20.000;2023-07-13T02:05:14;6.00;;;4.40;;
48897;SDS011;34713;50.038;20.000;2023-07-13T02:08:11;8.80;;;4.00;;
48897;SDS011;34713;50.038;20.000;2023-07-13T02:11:00;7.30;;;4.80;;
48897;SDS011;34713;50.038;20.000;2023-07-13T02:27:00;5.60;;;3.80;;
48897;SDS011;34713;50.038;20.000;2023-07-13T02:33:05;6.50;;;4.00;;
48897;SDS011;34713;50.038;20.000;2023-07-13T02:35:44;5.10;;;3.70;;
48897;SDS011;34713;50.038;20.000;2023-07-13T02:39:14;7.10;;;4.00;;
48897;SDS011;34713;50.038;20.000;2023-07-13T02:42:08;5.60;;;4.00;;
48897;SDS011;34713;50.038;20.000;2023-07-13T02:48:16;6.80;;;4.10;;
48897;SDS011;34713;50.038;20.000;2023-07-13T02:51:26;5.30;;;3.60;;
48897;SDS011;34713;50.038;20.000;2023-07-13T02:57:33;4.70;;;3.60;;
48897;SDS011;34713;50.038;20.000;2023-07-13T03:00:06;6.20;;;3.60;;
48897;SDS011;34713;50.038;20.000;2023-07-13T03:02:39;6.20;;;3.80;;
48897;SDS011;34713;50.038;20.000;2023-07-13T03:05:10;7.70;;;4.10;;
48897;SDS011;34713;50.038;20.000;2023-07-13T03:10:29;4.90;;;3.60;;
48897;SDS011;34713;50.038;20.000;2023-07-13T03:12:59;6.20;;;3.50;;
48897;SDS011;34713;50.038;20.000;2023-07-13T03:15:26;6.30;;;3.80;;
48897;SDS011;34713;50.038;20.000;2023-07-13T03:18:04;5.80;;;3.90;;
48897;SDS011;34713;50.038;20.000;2023-07-13T03:21:00;6.10;;;4.00;;
48897;SDS011;34713;50.038;20.000;2023-07-13T03:23:33;7.30;;;4.30;;
48897;SDS011;34713;50.038;20.000;2023-07-13T03:26:09;6.40;;;4.50;;
48897;SDS011;34713;50.038;20.000;2023-07-13T03:28:44;5.50;;;4.40;;
48897;SDS011;34713;50.038;20.000;2023-07-13T03:31:24;5.10;;;3.70;;
48897;SDS011;34713;50.038;20.000;2023-07-13T03:34:22;6.90;;;3.80;;
48897;SDS011;34713;50.038;20.000;2023-07-13T03:37:00;4.70;;;3.30;;
48897;SDS011;34713;50.038;20.000;2023-07-13T03:39:27;5.50;;;3.80;;
48897;SDS011;34713;50.038;20.000;2023-07-13T03:41:57;6.10;;;3.80;;
48897;SDS011;34713;50.038;20.000;2023-07-13T03:44:45;5.50;;;4.00;;
48897;SDS011;34713;50.038;20.000;2023-07-13T03:47:18;7.00;;;3.90;;
48897;SDS011;34713;50.038;20.000;2023-07-13T03:49:48;5.50;;;3.60;;
48897;SDS011;34713;50.038;20.000;2023-07-13T03:52:38;4.70;;;3.70;;
48897;SDS011;34713;50.038;20.000;2023-07-13T03:55:08;5.10;;;3.40;;
48897;SDS011;34713;50.038;20.000;2023-07-13T03:57:38;4.30;;;3.60;;
48897;SDS011;34713;50.038;20.000;2023-07-13T04:00:43;6.00;;;3.50;;
48897;SDS011;34713;50.038;20.000;2023-07-13T04:03:16;4.40;;;3.30;;
48897;SDS011;34713;50.038;20.000;2023-07-13T04:05:55;7.00;;;3.50;;
48897;SDS011;34713;50.038;20.000;2023-07-13T04:08:27;5.40;;;3.60;;
48897;SDS011;34713;50.038;20.000;2023-07-13T04:11:22;4.50;;;3.10;;
48897;SDS011;34713;50.038;20.000;2023-07-13T04:13:55;4.80;;;3.30;;
48897;SDS011;34713;50.038;20.000;2023-07-13T04:16:27;5.30;;;3.30;;
48897;SDS011;34713;50.038;20.000;2023-07-13T04:21:37;4.70;;;3.20;;
48897;SDS011;34713;50.038;20.000;2023-07-13T04:27:54;6.30;;;3.20;;
48897;SDS011;34713;50.038;20.000;2023-07-13T04:34:08;8.30;;;5.50;;
48897;SDS011;34713;50.038;20.000;2023-07-13T04:36:43;4.70;;;3.20;;
48897;SDS011;34713;50.038;20.000;2023-07-13T04:39:33;4.60;;;3.30;;
48897;SDS011;34713;50.038;20.000;2023-07-13T04:42:04;5.30;;;2.90;;
48897;SDS011;34713;50.038;20.000;2023-07-13T04:44:49;5.50;;;3.20;;
48897;SDS011;34713;50.038;20.000;2023-07-13T04:49:46;4.20;;;3.00;;
48897;SDS011;34713;50.038;20.000;2023-07-13T04:52:22;5.60;;;2.80;;
48897;SDS011;34713;50.038;20.000;2023-07-13T04:54:54;3.90;;;2.50;;
48897;SDS011;34713;50.038;20.000;2023-07-13T04:57:33;2.90;;;2.30;;
48897;SDS011;34713;50.038;20.000;2023-07-13T05:00:03;4.50;;;3.00;;
48897;SDS011;34713;50.038;20.000;2023-07-13T05:02:39;6.20;;;2.40;;
48897;SDS011;34713;50.038;20.000;2023-07-13T05:05:26;3.70;;;2.30;;
48897;SDS011;34713;50.038;20.000;2023-07-13T05:07:56;4.50;;;2.40;;
48897;SDS011;34713;50.038;20.000;2023-07-13T05:10:40;3.90;;;2.80;;
48897;SDS011;34713;50.038;20.000;2023-07-13T05:13:09;3.50;;;2.60;;
48897;SDS011;34713;50.038;20.000;2023-07-13T05:15:42;4.60;;;2.20;;
48897;SDS011;34713;50.038;20.000;2023-07-13T05:18:12;4.50;;;2.20;;
48897;SDS011;34713;50.038;20.000;2023-07-13T05:20:39;3.30;;;2.10;;
48897;SDS011;34713;50.038;20.000;2023-07-13T05:32:37;6.30;;;3.00;;
48897;SDS011;34713;50.038;20.000;2023-07-13T05:35:29;5.00;;;2.60;;
48897;SDS011;34713;50.038;20.000;2023-07-13T05:37:59;3.50;;;2.50;;
48897;SDS011;34713;50.038;20.000;2023-07-13T05:41:24;4.00;;;2.40;;
48897;SDS011;34713;50.038;20.000;2023-07-13T05:46:23;5.80;;;2.20;;
48897;SDS011;34713;50.038;20.000;2023-07-13T05:53:03;7.20;;;3.40;;
48897;SDS011;34713;50.038;20.000;2023-07-13T05:55:32;6.20;;;3.00;;
48897;SDS011;34713;50.038;20.000;2023-07-13T06:01:48;5.70;;;3.10;;
48897;SDS011;34713;50.038;20.000;2023-07-13T06:07:44;7.70;;;3.00;;
48897;SDS011;34713;50.038;20.000;2023-07-13T06:14:13;3.80;;;2.50;;
48897;SDS011;34713;50.038;20.000;2023-07-13T06:16:40;3.90;;;2.90;;
48897;SDS011;34713;50.038;20.000;2023-07-13T06:19:10;6.40;;;3.20;;
48897;SDS011;34713;50.038;20.000;2023-07-13T06:22:18;5.10;;;3.10;;
48897;SDS011;34713;50.038;20.000;2023-07-13T06:25:21;5.10;;;3.00;;
48897;SDS011;34713;50.038;20.000;2023-07-13T06:31:15;6.00;;;2.80;;
48897;SDS011;34713;50.038;20.000;2023-07-13T06:33:47;6.70;;;3.20;;
48897;SDS011;34713;50.038;20.000;2023-07-13T06:36:17;6.90;;;3.10;;
48897;SDS011;34713;50.038;20.000;2023-07-13T06:39:03;5.20;;;2.70;;
48897;SDS011;34713;50.038;20.000;2023-07-13T06:42:02;6.50;;;2.80;;
48897;SDS011;34713;50.038;20.000;2023-07-13T06:50:41;5.30;;;2.90;;
48897;SDS011;34713;50.038;20.000;2023-07-13T06:53:29;6.70;;;2.60;;
48897;SDS011;34713;50.038;20.000;2023-07-13T06:56:02;8.80;;;3.00;;
48897;SDS011;34713;50.038;20.000;2023-07-13T07:05:03;5.40;;;2.50;;
48897;SDS011;34713;50.038;20.000;2023-07-13T07:07:46;7.60;;;2.30;;
48897;SDS011;34713;50.038;20.000;2023-07-13T07:10:24;3.60;;;2.30;;
48897;SDS011;34713;50.038;20.000;2023-07-13T07:13:08;5.10;;;2.30;;
48897;SDS011;34713;50.038;20.000;2023-07-13T07:22:09;7.40;;;2.10;;
48897;SDS011;34713;50.038;20.000;2023-07-13T07:25:28;5.70;;;2.30;;
48897;SDS011;34713;50.038;20.000;2023-07-13T07:28:26;4.60;;;2.10;;
48897;SDS011;34713;50.038;20.000;2023-07-13T07:40:57;4.30;;;2.70;;
48897;SDS011;34713;50.038;20.000;2023-07-13T07:43:24;9.00;;;3.80;;
48897;SDS011;34713;50.038;20.000;2023-07-13T07:45:51;7.00;;;3.40;;
48897;SDS011;34713;50.038;20.000;2023-07-13T07:48:34;7.90;;;4.00;;
48897;SDS011;34713;50.038;20.000;2023-07-13T07:51:01;10.70;;;3.50;;
48897;SDS011;34713;50.038;20.000;2023-07-13T07:53:27;10.20;;;4.70;;
48897;SDS011;34713;50.038;20.000;2023-07-13T07:55:57;7.40;;;3.60;;
48897;SDS011;34713;50.038;20.000;2023-07-13T07:58:47;5.30;;;3.10;;
48897;SDS011;34713;50.038;20.000;2023-07-13T08:01:17;4.70;;;3.10;;
48897;SDS011;34713;50.038;20.000;2023-07-13T08:03:46;5.30;;;2.90;;
48897;SDS011;34713;50.038;20.000;2023-07-13T08:06:13;6.00;;;2.90;;
48897;SDS011;34713;50.038;20.000;2023-07-13T08:08:40;4.20;;;2.80;;
48897;SDS011;34713;50.038;20.000;2023-07-13T08:11:07;8.10;;;2.50;;
48897;SDS011;34713;50.038;20.000;2023-07-13T08:13:34;4.10;;;2.10;;
48897;SDS011;34713;50.038;20.000;2023-07-13T08:16:03;3.30;;;2.10;;
48897;SDS011;34713;50.038;20.000;2023-07-13T08:18:42;3.20;;;2.10;;
48897;SDS011;34713;50.038;20.000;2023-07-13T08:21:25;4.30;;;2.40;;
48897;SDS011;34713;50.038;20.000;2023-07-13T08:23:57;4.30;;;2.60;;
48897;SDS011;34713;50.038;20.000;2023-07-13T08:26:26;4.80;;;2.60;;
48897;SDS011;34713;50.038;20.000;2023-07-13T08:29:02;4.10;;;2.30;;
48897;SDS011;34713;50.038;20.000;2023-07-13T08:31:32;4.50;;;2.30;;
48897;SDS011;34713;50.038;20.000;2023-07-13T08:34:11;4.80;;;2.10;;
48897;SDS011;34713;50.038;20.000;2023-07-13T08:36:38;3.90;;;2.20;;
48897;SDS011;34713;50.038;20.000;2023-07-13T08:39:07;5.30;;;2.40;;
48897;SDS011;34713;50.038;20.000;2023-07-13T08:41:35;2.90;;;2.10;;
48897;SDS011;34713;50.038;20.000;2023-07-13T08:44:02;3.30;;;2.00;;
48897;SDS011;34713;50.038;20.000;2023-07-13T08:49:47;5.20;;;2.10;;
48897;SDS011;34713;50.038;20.000;2023-07-13T08:52:35;4.20;;;2.00;;
48897;SDS011;34713;50.038;20.000;2023-07-13T08:58:40;3.10;;;2.30;;
48897;SDS011;34713;50.038;20.000;2023-07-13T09:14:43;5.00;;;2.00;;
48897;SDS011;34713;50.038;20.000;2023-07-13T09:17:27;5.40;;;2.30;;
48897;SDS011;34713;50.038;20.000;2023-07-13T09:23:35;5.30;;;2.80;;
48897;SDS011;34713;50.038;20.000;2023-07-13T09:26:22;3.40;;;2.20;;
48897;SDS011;34713;50.038;20.000;2023-07-13T09:29:18;4.90;;;2.40;;
48897;SDS011;34713;50.038;20.000;2023-07-13T09:32:30;9.70;;;2.70;;
48897;SDS011;34713;50.038;20.000;2023-07-13T09:35:07;5.60;;;2.60;;
48897;SDS011;34713;50.038;20.000;2023-07-13T09:37:56;3.60;;;2.40;;
48897;SDS011;34713;50.038;20.000;2023-07-13T09:41:04;5.70;;;2.10;;
48897;SDS011;34713;50.038;20.000;2023-07-13T09:56:25;4.60;;;2.40;;
48897;SDS011;34713;50.038;20.000;2023-07-13T10:02:26;5.80;;;2.20;;
48897;SDS011;34713;50.038;20.000;2023-07-13T10:05:26;5.70;;;2.30;;
48897;SDS011;34713;50.038;20.000;2023-07-13T10:08:03;9.00;;;2.40;;
48897;SDS011;34713;50.038;20.000;2023-07-13T10:10:39;10.40;;;2.50;;
48897;SDS011;34713;50.038;20.000;2023-07-13T10:13:10;8.10;;;2.20;;
48897;SDS011;34713;50.038;20.000;2023-07-13T10:16:01;8.90;;;2.40;;
48897;SDS011;34713;50.038;20.000;2023-07-13T10:18:34;8.40;;;2.70;;
48897;SDS011;34713;50.038;20.000;2023-07-13T10:21:20;16.10;;;3.50;;
48897;SDS011;34713;50.038;20.000;2023-07-13T10:23:57;4.40;;;2.20;;
48897;SDS011;34713;50.038;20.000;2023-07-13T10:30:15;5.80;;;2.10;;
48897;SDS011;34713;50.038;20.000;2023-07-13T10:33:01;3.90;;;1.80;;
48897;SDS011;34713;50.038;20.000;2023-07-13T10:41:43;4.50;;;2.70;;
48897;SDS011;34713;50.038;20.000;2023-07-13T10:50:15;4.60;;;2.70;;
48897;SDS011;34713;50.038;20.000;2023-07-13T10:52:50;4.40;;;2.90;;
48897;SDS011;34713;50.038;20.000;2023-07-13T11:04:56;7.80;;;3.70;;
48897;SDS011;34713;50.038;20.000;2023-07-13T11:07:30;9.20;;;4.30;;
48897;SDS011;34713;50.038;20.000;2023-07-13T11:10:09;6.20;;;3.30;;
48897;SDS011;34713;50.038;20.000;2023-07-13T11:23:07;8.10;;;4.10;;
48897;SDS011;34713;50.038;20.000;2023-07-13T11:39:01;9.90;;;6.10;;
48897;SDS011;34713;50.038;20.000;2023-07-13T11:41:52;9.10;;;5.80;;
48897;SDS011;34713;50.038;20.000;2023-07-13T11:47:34;6.50;;;1.80;;
48897;SDS011;34713;50.038;20.000;2023-07-13T11:50:40;2.40;;;1.30;;
48897;SDS011;34713;50.038;20.000;2023-07-13T12:00:34;2.80;;;1.50;;
48897;SDS011;34713;50.038;20.000;2023-07-13T12:03:13;3.10;;;1.20;;
48897;SDS011;34713;50.038;20.000;2023-07-13T12:06:24;2.90;;;1.40;;
48897;SDS011;34713;50.038;20.000;2023-07-13T12:19:31;5.00;;;1.70;;
48897;SDS011;34713;50.038;20.000;2023-07-13T12:21:58;3.00;;;1.20;;
48897;SDS011;34713;50.038;20.000;2023-07-13T12:24:28;2.30;;;1.20;;
48897;SDS011;34713;50.038;20.000;2023-07-13T12:27:28;3.00;;;1.30;;
48897;SDS011;34713;50.038;20.000;2023-07-13T12:30:05;4.10;;;1.30;;
48897;SDS011;34713;50.038;20.000;2023-07-13T12:33:10;7.60;;;1.40;;
48897;SDS011;34713;50.038;20.000;2023-07-13T12:35:52;2.20;;;1.20;;
48897;SDS011;34713;50.038;20.000;2023-07-13T12:54:39;3.10;;;1.20;;
48897;SDS011;34713;50.038;20.000;2023-07-13T12:57:08;2.70;;;1.00;;
48897;SDS011;34713;50.038;20.000;2023-07-13T13:02:32;4.00;;;1.00;;
48897;SDS011;34713;50.038;20.000;2023-07-13T13:10:39;2.40;;;0.90;;
48897;SDS011;34713;50.038;20.000;2023-07-13T13:13:17;3.40;;;1.20;;
48897;SDS011;34713;50.038;20.000;2023-07-13T13:16:01;3.80;;;1.00;;
48897;SDS011;34713;50.038;20.000;2023-07-13T13:19:13;2.00;;;1.10;;
48897;SDS011;34713;50.038;20.000;2023-07-13T13:22:03;2.30;;;1.20;;
48897;SDS011;34713;50.038;20.000;2023-07-13T13:24:35;2.60;;;1.30;;
48897;SDS011;34713;50.038;20.000;2023-07-13T13:27:02;1.80;;;1.00;;
48897;SDS011;34713;50.038;20.000;2023-07-13T13:29:31;3.80;;;1.20;;
48897;SDS011;34713;50.038;20.000;2023-07-13T13:32:09;2.40;;;1.10;;
48897;SDS011;34713;50.038;20.000;2023-07-13T13:34:43;2.40;;;1.10;;
48897;SDS011;34713;50.038;20.000;2023-07-13T13:37:18;2.70;;;1.20;;
48897;SDS011;34713;50.038;20.000;2023-07-13T13:39:54;3.80;;;1.10;;
48897;SDS011;34713;50.038;20.000;2023-07-13T13:51:17;4.00;;;1.30;;
48897;SDS011;34713;50.038;20.000;2023-07-13T13:56:45;4.10;;;1.10;;
48897;SDS011;34713;50.038;20.000;2023-07-13T13:59:18;2.20;;;1.10;;
48897;SDS011;34713;50.038;20.000;2023-07-13T14:05:09;6.10;;;1.80;;
48897;SDS011;34713;50.038;20.000;2023-07-13T14:07:47;3.30;;;1.30;;
48897;SDS011;34713;50.038;20.000;2023-07-13T14:10:36;4.50;;;1.60;;
48897;SDS011;34713;50.038;20.000;2023-07-13T14:13:07;3.40;;;1.50;;
48897;SDS011;34713;50.038;20.000;2023-07-13T14:16:02;4.30;;;1.50;;
48897;SDS011;34713;50.038;20.000;2023-07-13T14:18:44;4.70;;;1.90;;
48897;SDS011;34713;50.038;20.000;2023-07-13T14:21:15;3.40;;;1.70;;
48897;SDS011;34713;50.038;20.000;2023-07-13T14:24:13;3.20;;;1.70;;
48897;SDS011;34713;50.038;20.000;2023-07-13T14:26:48;3.40;;;1.50;;
48897;SDS011;34713;50.038;20.000;2023-07-13T14:29:45;2.60;;;1.80;;
48897;SDS011;34713;50.038;20.000;2023-07-13T14:32:12;4.80;;;1.80;;
48897;SDS011;34713;50.038;20.000;2023-07-13T14:34:39;4.60;;;1.90;;
48897;SDS011;34713;50.038;20.000;2023-07-13T14:37:09;2.70;;;1.60;;
48897;SDS011;34713;50.038;20.000;2023-07-13T14:39:45;3.30;;;2.00;;
48897;SDS011;34713;50.038;20.000;2023-07-13T14:42:13;3.10;;;1.50;;
48897;SDS011;34713;50.038;20.000;2023-07-13T14:44:40;5.00;;;2.30;;
48897;SDS011;34713;50.038;20.000;2023-07-13T14:47:09;4.00;;;1.40;;
48897;SDS011;34713;50.038;20.000;2023-07-13T14:49:39;4.50;;;1.30;;
48897;SDS011;34713;50.038;20.000;2023-07-13T14:55:14;2.20;;;1.20;;
48897;SDS011;34713;50.038;20.000;2023-07-13T14:57:50;3.40;;;1.40;;
48897;SDS011;34713;50.038;20.000;2023-07-13T15:00:20;3.10;;;1.50;;
48897;SDS011;34713;50.038;20.000;2023-07-13T15:03:01;2.30;;;1.20;;
48897;SDS011;34713;50.038;20.000;2023-07-13T15:08:18;2.50;;;1.50;;
48897;SDS011;34713;50.038;20.000;2023-07-13T15:11:04;2.30;;;1.40;;
48897;SDS011;34713;50.038;20.000;2023-07-13T15:13:34;4.50;;;1.70;;
48897;SDS011;34713;50.038;20.000;2023-07-13T15:16:03;3.70;;;1.60;;
48897;SDS011;34713;50.038;20.000;2023-07-13T15:18:34;4.60;;;1.80;;
48897;SDS011;34713;50.038;20.000;2023-07-13T15:21:03;2.10;;;1.60;;
48897;SDS011;34713;50.038;20.000;2023-07-13T15:23:33;4.20;;;2.10;;
48897;SDS011;34713;50.038;20.000;2023-07-13T15:26:00;2.20;;;1.70;;
48897;SDS011;34713;50.038;20.000;2023-07-13T15:28:27;3.50;;;1.70;;
48897;SDS011;34713;50.038;20.000;2023-07-13T15:30:57;3.50;;;1.70;;
48897;SDS011;34713;50.038;20.000;2023-07-13T15:35:54;3.10;;;2.20;;
48897;SDS011;34713;50.038;20.000;2023-07-13T15:38:26;3.30;;;2.00;;
48897;SDS011;34713;50.038;20.000;2023-07-13T15:40:58;4.70;;;2.00;;
48897;SDS011;34713;50.038;20.000;2023-07-13T15:43:31;5.80;;;2.30;;
48897;SDS011;34713;50.038;20.000;2023-07-13T15:46:14;3.60;;;1.80;;
48897;SDS011;34713;50.038;20.000;2023-07-13T15:48:41;5.00;;;1.80;;
48897;SDS011;34713;50.038;20.000;2023-07-13T15:51:14;4.80;;;1.90;;
48897;SDS011;34713;50.038;20.000;2023-07-13T15:53:57;3.80;;;2.00;;
48897;SDS011;34713;50.038;20.000;2023-07-13T15:56:38;3.60;;;1.80;;
48897;SDS011;34713;50.038;20.000;2023-07-13T15:59:08;4.00;;;1.90;;
48897;SDS011;34713;50.038;20.000;2023-07-13T16:01:35;3.00;;;1.90;;
48897;SDS011;34713;50.038;20.000;2023-07-13T16:04:02;4.20;;;2.10;;
48897;SDS011;34713;50.038;20.000;2023-07-13T16:06:31;4.00;;;2.40;;
48897;SDS011;34713;50.038;20.000;2023-07-13T16:09:01;3.30;;;2.60;;
48897;SDS011;34713;50.038;20.000;2023-07-13T16:11:34;2.60;;;2.30;;
48897;SDS011;34713;50.038;20.000;2023-07-13T16:14:03;4.70;;;2.40;;
48897;SDS011;34713;50.038;20.000;2023-07-13T16:16:32;4.40;;;2.30;;
48897;SDS011;34713;50.038;20.000;2023-07-13T16:21:44;3.40;;;2.30;;
48897;SDS011;34713;50.038;20.000;2023-07-13T16:24:16;5.70;;;2.60;;
48897;SDS011;34713;50.038;20.000;2023-07-13T16:26:47;3.80;;;2.40;;
48897;SDS011;34713;50.038;20.000;2023-07-13T16:29:48;3.10;;;2.40;;
48897;SDS011;34713;50.038;20.000;2023-07-13T16:32:11;3.10;;;2.40;;
48897;SDS011;34713;50.038;20.000;2023-07-13T16:34:42;4.20;;;2.60;;
48897;SDS011;34713;50.038;20.000;2023-07-13T16:40:14;2.80;;;2.50;;
48897;SDS011;34713;50.038;20.000;2023-07-13T16:42:50;5.70;;;3.40;;
48897;SDS011;34713;50.038;20.000;2023-07-13T16:45:21;4.50;;;2.60;;
48897;SDS011;34713;50.038;20.000;2023-07-13T16:48:10;3.70;;;2.80;;
48897;SDS011;34713;50.038;20.000;2023-07-13T16:50:43;5.40;;;2.80;;
48897;SDS011;34713;50.038;20.000;2023-07-13T16:53:18;4.40;;;3.10;;
48897;SDS011;34713;50.038;20.000;2023-07-13T16:55:48;4.50;;;3.30;;
48897;SDS011;34713;50.038;20.000;2023-07-13T16:58:17;4.00;;;2.80;;
48897;SDS011;34713;50.038;20.000;2023-07-13T17:00:43;5.70;;;3.00;;
48897;SDS011;34713;50.038;20.000;2023-07-13T17:03:13;4.30;;;3.50;;
48897;SDS011;34713;50.038;20.000;2023-07-13T17:05:43;3.60;;;3.00;;
48897;SDS011;34713;50.038;20.000;2023-07-13T17:10:40;5.60;;;2.90;;
48897;SDS011;34713;50.038;20.000;2023-07-13T17:13:11;3.80;;;2.80;;
48897;SDS011;34713;50.038;20.000;2023-07-13T17:15:39;8.80;;;3.30;;
48897;SDS011;34713;50.038;20.000;2023-07-13T17:24:34;3.50;;;2.50;;
48897;SDS011;34713;50.038;20.000;2023-07-13T17:31:01;3.20;;;2.30;;
48897;SDS011;34713;50.038;20.000;2023-07-13T17:34:15;4.40;;;2.30;;
48897;SDS011;34713;50.038;20.000;2023-07-13T17:37:26;4.50;;;2.40;;
48897;SDS011;34713;50.038;20.000;2023-07-13T17:47:08;6.30;;;2.50;;
48897;SDS011;34713;50.038;20.000;2023-07-13T17:50:17;5.80;;;2.40;;
48897;SDS011;34713;50.038;20.000;2023-07-13T18:12:37;3.80;;;2.20;;
48897;SDS011;34713;50.038;20.000;2023-07-13T18:31:33;6.10;;;3.00;;
48897;SDS011;34713;50.038;20.000;2023-07-13T18:41:17;6.70;;;4.40;;
48897;SDS011;34713;50.038;20.000;2023-07-13T18:50:59;6.00;;;3.50;;
48897;SDS011;34713;50.038;20.000;2023-07-13T18:57:46;8.00;;;4.20;;
48897;SDS011;34713;50.038;20.000;2023-07-13T19:06:51;8.10;;;4.60;;
48897;SDS011;34713;50.038;20.000;2023-07-13T19:16:19;7.30;;;4.50;;
48897;SDS011;34713;50.038;20.000;2023-07-13T19:22:35;7.60;;;4.40;;
48897;SDS011;34713;50.038;20.000;2023-07-13T19:25:27;7.30;;;4.50;;
48897;SDS011;34713;50.038;20.000;2023-07-13T20:03:46;8.40;;;5.00;;
48897;SDS011;34713;50.038;20.000;2023-07-13T20:07:14;7.20;;;4.80;;
48897;SDS011;34713;50.038;20.000;2023-07-13T20:10:56;6.00;;;4.80;;
48897;SDS011;34713;50.038;20.000;2023-07-13T20:13:17;8.50;;;5.10;;
48897;SDS011;34713;50.038;20.000;2023-07-13T20:26:04;10.30;;;4.70;;
48897;SDS011;34713;50.038;20.000;2023-07-13T20:29:04;7.00;;;4.60;;
48897;SDS011;34713;50.038;20.000;2023-07-13T20:34:55;5.40;;;4.70;;
48897;SDS011;34713;50.038;20.000;2023-07-13T20:37:31;9.20;;;5.30;;
48897;SDS011;34713;50.038;20.000;2023-07-13T20:40:04;8.00;;;5.40;;
48897;SDS011;34713;50.038;20.000;2023-07-13T20:49:17;13.10;;;5.30;;
48897;SDS011;34713;50.038;20.000;2023-07-13T20:51:57;9.40;;;5.40;;
48897;SDS011;34713;50.038;20.000;2023-07-13T21:01:27;7.60;;;5.40;;
48897;SDS011;34713;50.038;20.000;2023-07-13T21:04:00;8.30;;;5.90;;
48897;SDS011;34713;50.038;20.000;2023-07-13T21:26:57;10.30;;;5.40;;
48897;SDS011;34713;50.038;20.000;2023-07-13T21:29:27;9.90;;;6.20;;
48897;SDS011;34713;50.038;20.000;2023-07-13T21:31:57;7.50;;;5.20;;
48897;SDS011;34713;50.038;20.000;2023-07-13T21:34:37;12.80;;;5.40;;
48897;SDS011;34713;50.038;20.000;2023-07-13T21:37:09;9.10;;;5.50;;
48897;SDS011;34713;50.038;20.000;2023-07-13T21:40:19;7.50;;;5.70;;
48897;SDS011;34713;50.038;20.000;2023-07-13T21:43:29;8.30;;;5.60;;
48897;SDS011;34713;50.038;20.000;2023-07-13T21:46:20;8.40;;;5.90;;
48897;SDS011;34713;50.038;20.000;2023-07-13T22:01:52;8.50;;;6.00;;
48897;SDS011;34713;50.038;20.000;2023-07-13T22:11:25;9.30;;;5.80;;
48897;SDS011;34713;50.038;20.000;2023-07-13T22:40:28;7.80;;;6.50;;
48897;SDS011;34713;50.038;20.000;2023-07-13T22:46:56;7.00;;;6.30;;
48897;SDS011;34713;50.038;20.000;2023-07-13T23:42:07;8.80;;;6.20;;
48897;SDS011;34713;50.038;20.000;2023-07-13T23:55:15;7.40;;;6.10;;
48897;SDS011;34713;50.038;20.000;2023-07-13T23:57:47;8.40;;;6.70;;
